createdAt,value
2018-09-24T00:01:29.165Z,98.90
2018-09-24T00:03:57.568Z,99.50
2018-09-24T00:06:26.105Z,99.70
2018-09-24T00:08:54.522Z,98.90
2018-09-24T00:11:22.997Z,99.20
2018-09-24T00:13:51.536Z,99.80
2018-09-24T00:16:19.981Z,98.90
2018-09-24T00:18:48.426Z,99.80
2018-09-24T00:21:16.857Z,99.80
2018-09-24T00:23:45.276Z,99.70
2018-09-24T00:26:13.702Z,99.10
2018-09-24T00:28:42.163Z,98.90
2018-09-24T00:31:10.596Z,98.60
2018-09-24T00:33:38.975Z,99.20
2018-09-24T00:36:07.527Z,99.40
2018-09-24T00:38:36.233Z,98.50
2018-09-24T00:41:04.747Z,98.30
2018-09-24T00:43:33.232Z,98.20
2018-09-24T00:46:01.592Z,98.80
2018-09-24T00:48:30.020Z,99.10
2018-09-24T00:50:58.394Z,99.50
2018-09-24T00:53:26.797Z,99.40
2018-09-24T00:55:55.192Z,99.80
2018-09-24T00:58:23.639Z,99.60
2018-09-24T01:00:52.066Z,99.80
2018-09-24T01:03:20.701Z,99.80
2018-09-24T01:05:49.162Z,99.80
2018-09-24T01:08:17.748Z,99.80
2018-09-24T01:10:46.215Z,99.80
2018-09-24T01:13:14.652Z,99.80
2018-09-24T01:15:43.050Z,99.80
2018-09-24T01:18:11.481Z,99.80
2018-09-24T01:20:39.899Z,99.80
2018-09-24T01:23:08.628Z,99.80
2018-09-24T01:25:37.245Z,99.80
2018-09-24T01:28:05.648Z,99.80
2018-09-24T01:30:34.036Z,99.80
2018-09-24T01:33:02.521Z,99.80
2018-09-24T01:35:31.024Z,99.80
2018-09-24T01:37:59.645Z,99.80
2018-09-24T01:40:28.178Z,99.80
2018-09-24T01:42:56.623Z,99.80
2018-09-24T01:45:25.342Z,99.80
2018-09-24T01:47:53.993Z,99.80
2018-09-24T01:50:22.385Z,99.80
2018-09-24T01:52:50.797Z,99.80
2018-09-24T01:55:19.181Z,99.80
2018-09-24T01:57:53.984Z,99.80
2018-09-24T02:00:22.416Z,99.80
2018-09-24T02:02:50.852Z,99.80
2018-09-24T02:05:19.225Z,99.80
2018-09-24T02:07:47.612Z,99.80
2018-09-24T02:10:22.695Z,99.80
2018-09-24T02:12:52.999Z,99.80
2018-09-24T02:15:26.551Z,99.80
2018-09-24T02:17:54.917Z,99.80
2018-09-24T02:20:23.445Z,99.80
2018-09-24T02:22:51.860Z,99.80
2018-09-24T02:25:20.281Z,99.80
2018-09-24T02:27:48.929Z,99.80
2018-09-24T02:30:18.419Z,99.80
2018-09-24T02:32:46.859Z,99.80
2018-09-24T02:35:15.434Z,99.80
2018-09-24T02:37:43.882Z,99.80
2018-09-24T02:40:21.903Z,99.10
2018-09-24T02:42:50.744Z,99.10
2018-09-24T02:45:19.263Z,98.70
2018-09-24T02:47:47.664Z,98.70
2018-09-24T02:50:16.063Z,98.40
2018-09-24T02:52:44.497Z,98.30
2018-09-24T02:55:16.381Z,98.70
2018-09-24T02:57:44.908Z,98.40
2018-09-24T03:00:16.505Z,98.80
2018-09-24T03:02:45.104Z,98.80
2018-09-24T03:05:13.496Z,98.90
2018-09-24T03:07:41.909Z,99.10
2018-09-24T03:10:10.360Z,98.80
2018-09-24T03:12:41.730Z,98.70
2018-09-24T03:15:10.854Z,98.80
2018-09-24T03:17:39.368Z,99.20
2018-09-24T03:20:07.818Z,99.40
2018-09-24T03:22:36.485Z,99.20
2018-09-24T03:25:05.706Z,99.30
2018-09-24T03:27:34.116Z,99.70
2018-09-24T03:30:02.507Z,99.80
2018-09-24T03:32:30.994Z,99.80
2018-09-24T03:34:59.403Z,99.80
2018-09-24T03:37:27.777Z,99.80
2018-09-24T03:39:56.213Z,99.80
2018-09-24T03:42:24.704Z,99.80
2018-09-24T03:44:53.084Z,99.80
2018-09-24T03:47:21.511Z,99.80
2018-09-24T03:49:49.989Z,99.80
2018-09-24T03:52:18.421Z,99.80
2018-09-24T03:54:46.860Z,99.80
2018-09-24T03:57:15.466Z,99.80
2018-09-24T03:59:44.748Z,99.80
2018-09-24T04:02:16.218Z,99.20
2018-09-24T04:04:50.347Z,99.50
2018-09-24T06:26:37.865Z,94.10
2018-09-24T06:29:11.803Z,94.20
2018-09-24T06:31:45.629Z,93.80
2018-09-24T06:34:19.389Z,93.40
2018-09-24T06:36:53.123Z,93.10
2018-09-24T06:39:26.921Z,92.90
2018-09-24T06:42:00.703Z,93.20
2018-09-24T06:44:34.452Z,93.50
2018-09-24T06:47:08.091Z,93.50
2018-09-24T06:49:41.969Z,93.00
2018-09-24T06:52:15.645Z,93.80
2018-09-24T06:54:49.377Z,92.80
2018-09-24T06:57:23.268Z,92.60
2018-09-24T06:59:56.979Z,92.00
2018-09-24T07:02:30.670Z,92.40
2018-09-24T07:05:04.323Z,92.40
2018-09-24T07:07:38.108Z,91.30
2018-09-24T07:10:11.935Z,91.70
2018-09-24T07:12:45.539Z,91.30
2018-09-24T07:15:19.115Z,89.90
2018-09-24T07:17:52.681Z,90.60
2018-09-24T07:20:26.988Z,89.70
2018-09-24T07:23:00.682Z,90.10
2018-09-24T07:25:34.531Z,89.80
2018-09-24T07:28:08.433Z,89.80
2018-09-24T07:30:42.134Z,89.50
2018-09-24T07:33:15.990Z,88.80
2018-09-24T07:35:49.786Z,89.10
2018-09-24T07:38:23.653Z,87.60
2018-09-24T07:40:57.987Z,88.30
2018-09-24T07:43:31.664Z,88.40
2018-09-24T07:46:05.363Z,87.40
2018-09-24T07:48:39.322Z,87.70
2018-09-24T07:51:12.988Z,86.10
2018-09-24T07:53:46.806Z,86.70
2018-09-24T07:56:20.978Z,87.50
2018-09-24T07:58:54.684Z,86.10
2018-09-24T08:01:28.264Z,87.00
2018-09-24T08:04:01.951Z,87.20
2018-09-24T08:06:35.808Z,85.70
2018-09-24T08:09:10.875Z,85.70
2018-09-24T08:11:44.778Z,85.10
2018-09-24T08:14:18.761Z,84.40
2018-09-24T08:16:52.718Z,83.60
2018-09-24T08:19:26.435Z,83.00
2018-09-24T08:22:00.124Z,84.30
2018-09-24T08:24:33.865Z,84.20
2018-09-24T08:27:07.535Z,82.50
2018-09-24T08:29:41.513Z,81.90
2018-09-24T08:32:15.499Z,82.30
2018-09-24T08:34:49.672Z,82.80
2018-09-24T08:37:23.363Z,81.80
2018-09-24T08:39:57.156Z,80.90
2018-09-24T08:42:30.821Z,81.20
2018-09-24T08:45:04.698Z,81.60
2018-09-24T08:47:38.548Z,81.10
2018-09-24T08:50:12.387Z,81.30
2018-09-24T08:52:45.961Z,80.00
2018-09-24T08:55:19.841Z,80.60
2018-09-24T08:57:53.806Z,80.80
2018-09-24T09:00:27.785Z,80.20
2018-09-24T09:03:01.642Z,80.20
2018-09-24T09:05:36.312Z,78.20
2018-09-24T09:08:10.118Z,76.20
2018-09-24T09:10:44.058Z,77.10
2018-09-24T09:13:17.788Z,77.00
2018-09-24T09:15:51.413Z,75.20
2018-09-24T09:18:25.644Z,76.30
2018-09-24T09:20:59.298Z,75.00
2018-09-24T09:23:33.006Z,76.30
2018-09-24T09:26:06.757Z,72.80
2018-09-24T09:28:40.500Z,72.20
2018-09-24T09:31:14.594Z,71.20
2018-09-24T09:33:48.739Z,71.90
2018-09-24T09:36:22.590Z,70.70
2018-09-24T09:38:56.304Z,70.30
2018-09-24T09:41:30.509Z,69.40
2018-09-24T09:44:04.265Z,70.30
2018-09-24T09:46:37.974Z,70.50
2018-09-24T09:49:11.696Z,69.90
2018-09-24T09:51:45.582Z,69.70
2018-09-24T09:54:19.265Z,67.80
2018-09-24T09:56:52.871Z,67.90
2018-09-24T09:59:26.801Z,67.20
2018-09-24T10:02:00.670Z,68.50
2018-09-24T10:04:34.307Z,67.80
2018-09-24T10:07:08.015Z,65.10
2018-09-24T10:09:41.577Z,64.60
2018-09-24T10:12:15.314Z,65.70
2018-09-24T10:14:49.052Z,63.10
2018-09-24T10:17:22.826Z,64.10
2018-09-24T10:19:56.493Z,64.00
2018-09-24T10:22:30.362Z,63.90
2018-09-24T10:25:04.093Z,62.20
2018-09-24T10:27:37.909Z,59.10
2018-09-24T10:30:11.601Z,60.20
2018-09-24T10:32:45.380Z,61.90
2018-09-24T10:35:19.013Z,59.30
2018-09-24T10:37:52.775Z,61.10
2018-09-24T10:40:26.450Z,62.10
2018-09-24T10:43:00.282Z,61.10
2018-09-24T10:45:33.904Z,60.10
2018-09-24T10:48:07.633Z,60.50
2018-09-24T10:50:41.348Z,60.70
2018-09-24T10:53:15.103Z,59.60
2018-09-24T10:55:48.769Z,60.60
2018-09-24T10:58:22.465Z,58.20
2018-09-24T11:00:56.562Z,59.00
2018-09-24T11:03:30.351Z,56.90
2018-09-24T11:06:04.141Z,56.40
2018-09-24T11:08:37.885Z,56.90
2018-09-24T11:11:11.568Z,57.60
2018-09-24T11:13:45.219Z,56.90
2018-09-24T11:16:19.087Z,55.00
2018-09-24T11:18:52.704Z,55.70
2018-09-24T11:21:26.401Z,55.30
2018-09-24T11:24:00.130Z,54.90
2018-09-24T11:26:33.879Z,49.80
2018-09-24T11:29:07.530Z,43.00
2018-09-24T11:31:41.290Z,38.50
2018-09-24T11:34:14.838Z,35.30
2018-09-24T11:36:55.372Z,33.90
2018-09-24T11:39:28.992Z,33.30
2018-09-24T11:42:02.545Z,32.50
2018-09-24T11:44:36.208Z,31.20
2018-09-24T11:47:10.308Z,31.80
2018-09-24T11:49:44.012Z,30.70
2018-09-24T11:52:17.744Z,30.30
2018-09-24T11:54:51.427Z,30.20
2018-09-24T11:57:25.210Z,31.80
2018-09-24T11:59:58.966Z,33.00
2018-09-24T12:02:33.318Z,30.60
2018-09-24T12:05:07.021Z,31.00
2018-09-24T12:07:40.853Z,35.90
2018-09-24T12:10:14.797Z,37.60
2018-09-24T12:12:48.401Z,39.00
2018-09-24T12:15:22.121Z,38.70
2018-09-24T12:17:55.858Z,36.50
2018-09-24T12:20:29.629Z,35.00
2018-09-24T12:23:03.634Z,34.50
2018-09-24T12:25:37.240Z,34.70
2018-09-24T12:28:10.968Z,32.90
2018-09-24T12:30:44.614Z,31.10
2018-09-24T12:33:18.237Z,28.80
2018-09-24T12:35:51.953Z,28.80
2018-09-24T12:38:25.740Z,28.40
2018-09-24T12:40:59.453Z,27.20
2018-09-24T12:43:32.969Z,27.80
2018-09-24T12:46:06.690Z,26.70
2018-09-24T12:48:40.312Z,26.80
2018-09-24T12:54:18.617Z,31.70
2018-09-24T12:56:52.374Z,34.10
2018-09-24T12:59:25.996Z,36.70
2018-09-24T13:01:59.780Z,33.80
2018-09-24T13:04:33.394Z,31.90
2018-09-24T13:07:07.098Z,30.10
2018-09-24T13:09:40.738Z,30.40
2018-09-24T13:12:14.691Z,30.70
2018-09-24T13:14:48.292Z,33.40
2018-09-24T13:17:22.552Z,37.20
2018-09-24T13:19:56.290Z,41.00
2018-09-24T13:22:30.169Z,42.40
2018-09-24T13:25:03.882Z,45.60
2018-09-24T13:27:38.296Z,45.60
2018-09-24T13:30:12.057Z,45.30
2018-09-24T13:32:45.628Z,46.00
2018-09-24T13:35:19.750Z,48.60
2018-09-24T13:37:53.485Z,50.90
2018-09-24T13:40:27.214Z,49.80
2018-09-24T13:43:00.837Z,47.80
2018-09-24T13:45:34.588Z,47.90
2018-09-24T13:48:08.410Z,49.20
2018-09-24T13:50:42.157Z,49.00
2018-09-24T13:53:15.938Z,46.50
2018-09-24T13:55:49.733Z,48.50
2018-09-24T13:58:23.643Z,47.60
2018-09-24T14:00:57.168Z,47.60
2018-09-24T14:03:30.909Z,48.60
2018-09-24T14:06:04.577Z,49.10
2018-09-24T14:08:38.325Z,50.30
2018-09-24T14:11:12.060Z,49.70
2018-09-24T14:13:45.871Z,49.30
2018-09-24T14:16:19.543Z,50.40
2018-09-24T14:18:53.424Z,49.10
2018-09-24T14:21:27.184Z,49.70
2018-09-24T14:24:00.893Z,50.30
2018-09-24T14:26:34.655Z,51.20
2018-09-24T14:29:08.493Z,51.60
2018-09-24T14:31:42.439Z,52.30
2018-09-24T14:34:16.272Z,52.90
2018-09-24T14:36:49.947Z,54.70
2018-09-24T14:39:23.542Z,55.10
2018-09-24T14:41:58.179Z,55.20
2018-09-24T14:44:31.809Z,56.10
2018-09-24T14:47:05.440Z,56.70
2018-09-24T14:49:39.088Z,56.00
2018-09-24T14:52:13.167Z,56.40
2018-09-24T14:54:47.033Z,54.90
2018-09-24T14:57:20.824Z,53.40
2018-09-24T14:59:54.405Z,52.80
2018-09-24T15:02:28.127Z,52.40
2018-09-24T15:05:01.924Z,51.70
2018-09-24T15:07:35.628Z,51.10
2018-09-24T15:10:09.281Z,51.20
2018-09-24T15:12:42.890Z,47.60
2018-09-24T15:15:16.536Z,44.40
2018-09-24T15:17:50.128Z,43.60
2018-09-24T15:20:23.664Z,42.20
2018-09-24T15:22:57.949Z,43.50
2018-09-24T15:25:31.688Z,44.30
2018-09-24T15:28:05.370Z,45.80
2018-09-24T15:30:39.064Z,46.70
2018-09-24T15:33:12.996Z,47.00
2018-09-24T15:35:46.791Z,48.70
2018-09-24T15:38:20.357Z,51.30
2018-09-24T15:40:54.130Z,53.80
2018-09-24T15:43:27.905Z,55.30
2018-09-24T15:46:01.703Z,54.60
2018-09-24T15:48:35.339Z,55.50
2018-09-24T15:51:09.229Z,56.80
2018-09-24T15:53:43.678Z,56.70
2018-09-24T15:56:17.409Z,56.10
2018-09-24T15:58:51.153Z,56.90
2018-09-24T16:01:24.886Z,57.40
2018-09-24T16:03:58.612Z,57.20
2018-09-24T16:06:32.662Z,56.70
2018-09-24T16:09:06.396Z,57.00
2018-09-24T16:11:40.256Z,58.90
2018-09-24T16:14:14.064Z,59.80
2018-09-24T16:16:47.809Z,60.40
2018-09-24T16:19:21.582Z,61.50
2018-09-24T16:21:55.429Z,61.40
2018-09-24T16:24:29.123Z,62.40
2018-09-24T16:27:02.806Z,62.70
2018-09-24T16:29:36.897Z,63.20
2018-09-24T16:32:10.676Z,62.80
2018-09-24T16:34:44.424Z,63.40
2018-09-24T16:37:18.530Z,63.40
2018-09-24T16:39:52.318Z,65.00
2018-09-24T16:42:26.184Z,65.50
2018-09-24T16:45:00.277Z,65.30
2018-09-24T16:47:34.047Z,65.90
2018-09-24T16:50:07.796Z,66.60
2018-09-24T16:52:41.648Z,66.40
2018-09-24T16:55:15.356Z,67.00
2018-09-24T16:57:49.872Z,67.00
2018-09-24T17:00:23.522Z,68.00
2018-09-24T17:02:57.348Z,67.90
2018-09-24T17:05:31.080Z,68.50
2018-09-24T17:08:04.825Z,68.10
2018-09-24T17:10:38.458Z,67.80
2018-09-24T17:13:13.154Z,68.40
2018-09-24T17:15:46.838Z,69.50
2018-09-24T17:18:20.666Z,68.90
2018-09-24T17:20:55.273Z,69.20
2018-09-24T17:23:29.057Z,70.80
2018-09-24T17:26:02.803Z,71.00
2018-09-24T17:28:36.623Z,70.80
2018-09-24T17:31:10.316Z,71.70
2018-09-24T17:33:44.382Z,72.40
2018-09-24T17:36:23.050Z,73.00
2018-09-24T17:38:56.887Z,73.40
2018-09-24T17:41:30.588Z,73.60
2018-09-24T17:44:04.268Z,73.80
2018-09-24T17:46:38.388Z,74.40
2018-09-24T17:49:12.241Z,74.80
2018-09-24T17:51:45.881Z,74.90
2018-09-24T17:54:19.497Z,74.90
2018-09-24T17:56:53.190Z,75.00
2018-09-24T17:59:27.113Z,74.90
2018-09-24T18:02:02.218Z,75.00
2018-09-24T18:04:35.918Z,77.60
2018-09-24T18:07:09.729Z,80.40
2018-09-24T18:09:43.372Z,83.90
2018-09-24T18:12:19.309Z,86.70
2018-09-24T18:14:53.913Z,88.50
2018-09-24T18:17:27.658Z,90.70
2018-09-24T18:20:01.702Z,89.50
2018-09-24T18:22:35.572Z,92.30
2018-09-24T18:25:09.276Z,91.80
2018-09-24T18:27:43.278Z,90.60
2018-09-24T18:30:17.021Z,91.50
2018-09-24T18:32:50.872Z,90.40
2018-09-24T18:35:24.718Z,91.30
2018-09-24T18:37:58.564Z,93.90
2018-09-24T18:40:32.177Z,93.90
2018-09-24T18:43:05.928Z,94.00
2018-09-24T18:45:39.595Z,92.70
2018-09-24T18:48:13.187Z,94.00
2018-09-24T18:50:46.973Z,95.60
2018-09-24T18:53:20.842Z,94.90
2018-09-24T18:55:54.602Z,95.90
2018-09-24T18:58:28.303Z,96.30
2018-09-24T19:01:02.089Z,96.20
2018-09-24T19:03:35.801Z,95.80
2018-09-24T19:06:09.552Z,95.60
2018-09-24T19:08:43.404Z,95.00
2018-09-24T19:11:27.646Z,95.00
2018-09-24T19:13:50.959Z,95.90
2018-09-24T19:16:24.959Z,96.80
2018-09-24T19:18:58.813Z,95.50
2018-09-24T19:21:32.387Z,97.00
2018-09-24T19:24:06.188Z,96.80
2018-09-24T19:26:39.980Z,97.00
2018-09-24T19:29:13.708Z,97.70
2018-09-24T19:31:47.546Z,98.70
2018-09-24T19:34:21.524Z,96.40
2018-09-24T19:36:55.564Z,98.00
2018-09-24T19:39:29.061Z,97.80
2018-09-24T19:42:03.249Z,96.60
2018-09-24T19:44:37.129Z,95.40
2018-09-24T19:47:11.039Z,96.10
2018-09-24T19:49:44.677Z,96.90
2018-09-24T19:52:18.401Z,96.80
2018-09-24T19:54:52.280Z,96.60
2018-09-24T19:57:26.328Z,96.90
2018-09-24T20:00:00.016Z,95.10
2018-09-24T20:02:33.688Z,94.70
2018-09-24T20:05:07.334Z,94.50
2018-09-24T20:07:41.012Z,93.40
2018-09-24T20:10:14.863Z,93.90
2018-09-24T20:12:48.471Z,94.20
2018-09-24T20:15:22.181Z,94.90
2018-09-24T20:17:55.938Z,95.10
2018-09-24T20:20:29.840Z,94.10
2018-09-24T20:23:03.599Z,94.70
2018-09-24T20:25:37.347Z,94.90
2018-09-24T20:28:10.985Z,93.90
2018-09-24T20:30:44.664Z,93.30
2018-09-24T20:33:18.467Z,93.60
2018-09-24T20:35:52.428Z,94.20
2018-09-24T20:38:26.418Z,95.40
2018-09-24T20:41:03.235Z,94.10
2018-09-24T20:43:37.369Z,95.40
2018-09-24T20:46:11.342Z,96.00
2018-09-24T20:48:45.112Z,95.30
2018-09-24T20:51:20.218Z,94.80
2018-09-24T20:53:54.041Z,95.60
2018-09-24T20:56:29.372Z,94.90
2018-09-24T20:59:04.559Z,95.90
2018-09-24T21:01:38.263Z,95.90
2018-09-24T21:04:12.803Z,95.90
2018-09-24T21:06:46.595Z,96.30
2018-09-24T21:09:20.510Z,96.50
2018-09-24T21:11:55.642Z,96.40
2018-09-24T21:14:33.280Z,96.40
2018-09-24T21:17:07.483Z,97.70
2018-09-24T21:19:41.353Z,97.40
2018-09-24T21:22:15.235Z,97.00
2018-09-24T21:25:09.265Z,96.90
2018-09-24T21:27:43.172Z,97.30
2018-09-24T21:30:16.980Z,97.50
2018-09-24T21:32:50.975Z,97.70
2018-09-24T21:35:24.893Z,98.00
2018-09-24T21:37:58.785Z,98.80
2018-09-24T21:46:16.763Z,96.40
2018-09-24T21:48:54.608Z,97.70
2018-09-24T21:51:32.493Z,97.70
2018-09-24T21:54:08.791Z,97.70
2018-09-24T21:56:49.340Z,97.90
2018-09-24T21:59:24.707Z,97.40
2018-09-24T22:02:04.083Z,97.50
2018-09-24T22:04:43.365Z,97.00
2018-09-24T22:07:18.962Z,95.40
2018-09-24T22:09:53.399Z,94.90
2018-09-24T22:14:38.721Z,96.70
2018-09-24T22:17:12.349Z,96.90
2018-09-24T22:19:46.140Z,96.80
2018-09-24T22:22:19.872Z,96.60
2018-09-24T22:24:54.284Z,97.10
2018-09-24T22:27:28.057Z,97.00
2018-09-24T22:30:01.771Z,96.80
2018-09-24T22:32:35.914Z,97.50
2018-09-24T22:35:10.051Z,97.10
2018-09-24T22:37:43.689Z,97.10
2018-09-24T22:40:17.494Z,96.40
2018-09-24T22:42:51.168Z,97.30
2018-09-24T22:45:24.671Z,97.00
2018-09-24T22:47:58.452Z,96.50
2018-09-24T22:50:32.202Z,96.10
2018-09-24T22:53:05.722Z,96.00
2018-09-24T22:55:39.320Z,95.90
2018-09-24T22:58:12.906Z,96.20
2018-09-24T23:00:46.602Z,95.70
2018-09-24T23:03:20.464Z,96.40
2018-09-24T23:05:55.233Z,95.90
2018-09-24T23:08:28.773Z,96.60
2018-09-24T23:11:02.686Z,96.70
2018-09-24T23:13:36.235Z,96.50
2018-09-24T23:16:10.040Z,97.20
2018-09-24T23:18:44.445Z,96.70
2018-09-24T23:21:18.684Z,96.30
2018-09-24T23:23:52.331Z,96.10
2018-09-24T23:26:26.113Z,95.80
2018-09-24T23:29:00.423Z,96.10
2018-09-24T23:31:34.205Z,97.40
2018-09-24T23:34:08.017Z,97.30
2018-09-24T23:36:41.899Z,96.90
2018-09-24T23:39:15.602Z,96.70
2018-09-24T23:41:49.674Z,97.20
2018-09-24T23:44:23.548Z,96.90
2018-09-24T23:46:57.978Z,97.80
2018-09-24T23:49:31.814Z,96.80
2018-09-24T23:52:05.629Z,96.50
2018-09-24T23:54:39.421Z,96.50
2018-09-24T23:57:13.100Z,97.20
2018-09-24T23:59:46.848Z,97.70
